KCNM/CNM METAR and TAF weather

Enter ICAO airport designator
Station Type Date Time Source
KCNM METAR 2021/04/13 22:53 UTC NOAA

KCNM 132253Z AUTO 11011G16KT 10SM FEW048 19/M01 A2996 RMK AO2 SLP112 T01941006


Station Type Date Time Source
KCNM Decoded METAR 2021/04/13 22:53 UTC NOAA

CARLSBAD CAVERN CITY, NM, United States (KCNM) 32-20N 104-16W 985M
Apr 13, 2021 - 06:53 PM EDT / 2021.04.13 2253 UTC
Wind: from the ESE (110 degrees) at 13 MPH (11 KT) gusting to 18 MPH (16 KT):0
Visibility: 10 mile(s):0
Sky conditions: mostly clear
Temperature: 66.9 F (19.4 C)
Dew Point: 30.9 F (-0.6 C)
Relative Humidity: 25%
Pressure (altimeter): 29.96 in. Hg (1014 hPa)
ob: KCNM 132253Z AUTO 11011G16KT 10SM FEW048 19/M01 A2996 RMK AO2 SLP112 T01941006
cycle: 23

Station Type Date Time Source
KCNM TAF 2021/04/13 18:28 UTC NOAA

TAF KCNM 131726Z 1318/1418 05008KT P6SM BKN050
FM132000 10010KT P6SM BKN035
FM140800 14007KT P6SM BKN030

Example: see airport list